createdAt,value
2022-12-22T00:00:10.211Z,0
2022-12-22T00:02:17.616Z,0
2022-12-22T00:04:24.854Z,0
2022-12-22T00:05:28.904Z,0
2022-12-22T00:07:35.444Z,0
2022-12-22T00:09:42.267Z,0
2022-12-22T00:11:48.796Z,0
2022-12-22T00:12:51.508Z,0
2022-12-22T00:14:57.620Z,0
2022-12-22T00:17:04.259Z,0
2022-12-22T00:19:10.787Z,0
2022-12-22T00:20:20.866Z,0
2022-12-22T00:21:24.320Z,0
2022-12-22T00:22:27.089Z,0
2022-12-22T00:24:33.440Z,0
2022-12-22T00:25:36.173Z,0
2022-12-22T00:26:39.673Z,0
2022-12-22T00:27:47.702Z,0
2022-12-22T00:28:51.127Z,0
2022-12-22T00:29:54.135Z,0
2022-12-22T00:32:00.093Z,0
2022-12-22T00:33:03.337Z,0
2022-12-22T00:35:09.813Z,0
2022-12-22T00:37:17.762Z,0
2022-12-22T00:39:24.024Z,0
2022-12-22T00:40:27.322Z,0
2022-12-22T00:42:33.367Z,0
2022-12-22T00:44:39.321Z,0
2022-12-22T00:46:44.998Z,0
2022-12-22T00:47:48.505Z,0
2022-12-22T00:49:54.524Z,0
2022-12-22T00:52:00.681Z,0
2022-12-22T00:54:07.032Z,0
2022-12-22T00:55:10.085Z,0
2022-12-22T00:57:17.248Z,0
2022-12-22T00:59:22.823Z,0
2022-12-22T01:00:26.604Z,0
2022-12-22T01:01:30.435Z,0
2022-12-22T01:02:35.479Z,0
2022-12-22T01:04:41.485Z,0
2022-12-22T01:06:47.471Z,0
2022-12-22T01:07:50.581Z,0
2022-12-22T01:09:57.753Z,0
2022-12-22T01:12:02.817Z,0
2022-12-22T01:13:05.560Z,0
2022-12-22T01:14:08.964Z,0
2022-12-22T01:15:11.788Z,0
2022-12-22T01:17:17.645Z,0
2022-12-22T01:18:21.008Z,0
2022-12-22T01:19:24.450Z,0
2022-12-22T01:20:27.565Z,0
2022-12-22T01:22:33.809Z,0
2022-12-22T01:23:36.942Z,0
2022-12-22T01:24:41.000Z,0
2022-12-22T01:25:44.670Z,0
2022-12-22T01:27:50.702Z,0
2022-12-22T01:29:56.880Z,0
2022-12-22T01:31:00.395Z,0
2022-12-22T01:33:06.231Z,0
2022-12-22T01:35:13.018Z,0
2022-12-22T01:36:15.859Z,0
2022-12-22T01:37:19.211Z,0
2022-12-22T01:38:22.315Z,0
2022-12-22T01:40:28.992Z,0
2022-12-22T01:41:31.777Z,0
2022-12-22T01:42:34.529Z,0
2022-12-22T01:43:38.208Z,0
2022-12-22T01:45:43.575Z,0
2022-12-22T01:46:47.977Z,0
2022-12-22T01:47:51.136Z,0
2022-12-22T01:48:54.174Z,0
2022-12-22T01:51:00.262Z,0
2022-12-22T01:52:03.278Z,0
2022-12-22T01:54:09.254Z,0
2022-12-22T01:56:16.409Z,0
2022-12-22T01:58:22.871Z,0
2022-12-22T01:59:26.439Z,0
2022-12-22T02:01:34.751Z,0
2022-12-22T02:03:43.033Z,0
2022-12-22T02:05:49.147Z,0
2022-12-22T02:07:02.401Z,0
2022-12-22T02:09:08.816Z,0
2022-12-22T02:10:12.235Z,0
2022-12-22T02:11:16.030Z,0
2022-12-22T02:12:19.257Z,0
2022-12-22T02:13:22.637Z,0
2022-12-22T02:14:32.695Z,0
2022-12-22T02:15:35.464Z,0
2022-12-22T02:17:41.953Z,0
2022-12-22T02:18:44.976Z,0
2022-12-22T02:20:50.841Z,0
2022-12-22T02:22:57.011Z,0
2022-12-22T02:23:59.830Z,0
2022-12-22T02:26:06.672Z,0
2022-12-22T02:28:12.830Z,0
2022-12-22T02:29:15.848Z,0
2022-12-22T02:30:18.581Z,0
2022-12-22T02:31:22.685Z,0
2022-12-22T02:33:29.178Z,0
2022-12-22T02:35:35.846Z,0
2022-12-22T02:36:38.670Z,0
2022-12-22T02:38:45.069Z,0
2022-12-22T02:39:48.188Z,0
2022-12-22T02:40:50.433Z,0
2022-12-22T02:41:53.777Z,0
2022-12-22T02:44:00.796Z,0
2022-12-22T02:45:04.081Z,0
2022-12-22T02:47:10.023Z,0
2022-12-22T02:49:15.859Z,0
2022-12-22T02:50:18.862Z,0
2022-12-22T02:52:24.698Z,0
2022-12-22T02:54:31.181Z,0
2022-12-22T02:55:34.852Z,0
2022-12-22T02:57:40.951Z,0
2022-12-22T02:59:47.812Z,0
2022-12-22T03:01:55.635Z,0
2022-12-22T03:03:00.641Z,0
2022-12-22T03:04:03.885Z,0
2022-12-22T03:05:07.240Z,0
2022-12-22T03:07:13.449Z,0
2022-12-22T03:08:16.280Z,0
2022-12-22T03:09:19.432Z,0
2022-12-22T03:10:23.519Z,0
2022-12-22T03:12:30.015Z,0
2022-12-22T03:13:32.914Z,0
2022-12-22T03:14:36.596Z,0
2022-12-22T03:15:41.002Z,0
2022-12-22T03:17:47.744Z,0
2022-12-22T03:19:53.930Z,0
2022-12-22T03:20:56.678Z,0
2022-12-22T03:23:02.906Z,0
2022-12-22T03:25:07.813Z,0
2022-12-22T03:27:14.410Z,0
2022-12-22T03:28:17.154Z,0
2022-12-22T03:30:22.457Z,0
2022-12-22T03:32:29.313Z,0
2022-12-22T03:33:31.864Z,0
2022-12-22T03:34:34.589Z,0
2022-12-22T03:35:37.692Z,0
2022-12-22T03:37:44.540Z,0
2022-12-22T03:39:49.791Z,0
2022-12-22T03:40:53.438Z,0
2022-12-22T03:42:59.264Z,0
2022-12-22T03:45:04.851Z,0
2022-12-22T03:47:12.270Z,0
2022-12-22T03:48:14.885Z,0
2022-12-22T03:50:20.347Z,0
2022-12-22T03:52:26.846Z,0
2022-12-22T03:54:32.938Z,0
2022-12-22T03:55:36.376Z,0
2022-12-22T03:57:42.514Z,0
2022-12-22T03:59:48.299Z,0
2022-12-22T04:01:56.977Z,0
2022-12-22T04:03:02.421Z,0
2022-12-22T04:05:08.735Z,0
2022-12-22T04:07:14.277Z,0
2022-12-22T04:09:20.012Z,0
2022-12-22T04:10:23.012Z,0
2022-12-22T04:12:28.649Z,0
2022-12-22T04:14:37.525Z,0
2022-12-22T04:16:44.173Z,0
2022-12-22T04:17:47.559Z,0
2022-12-22T04:19:54.476Z,0
2022-12-22T04:22:02.091Z,0
2022-12-22T04:24:09.232Z,0
2022-12-22T04:25:12.054Z,0
2022-12-22T04:27:18.616Z,0
2022-12-22T04:29:24.121Z,0
2022-12-22T04:31:30.120Z,0
2022-12-22T04:32:33.174Z,0
2022-12-22T04:34:39.615Z,0
2022-12-22T04:36:46.079Z,0
2022-12-22T04:38:51.859Z,0
2022-12-22T04:39:54.075Z,0
2022-12-22T04:42:00.270Z,0
2022-12-22T04:44:06.029Z,0
2022-12-22T04:46:12.842Z,0
2022-12-22T04:47:16.371Z,0
2022-12-22T04:49:21.611Z,0
2022-12-22T04:51:28.323Z,0
2022-12-22T04:53:34.180Z,0
2022-12-22T04:54:37.354Z,0
2022-12-22T04:56:43.299Z,0
2022-12-22T04:58:48.883Z,0
2022-12-22T05:00:54.796Z,0
2022-12-22T05:01:58.981Z,0
2022-12-22T05:04:05.836Z,0
2022-12-22T05:06:12.901Z,0
2022-12-22T05:08:19.316Z,0
2022-12-22T05:09:22.051Z,0
2022-12-22T05:10:24.951Z,0
2022-12-22T05:11:28.235Z,0
2022-12-22T05:13:33.912Z,0
2022-12-22T05:14:37.496Z,0
2022-12-22T05:15:39.923Z,0
2022-12-22T05:16:43.783Z,0
2022-12-22T05:18:49.350Z,0
2022-12-22T05:19:53.372Z,0
2022-12-22T05:20:56.698Z,0
2022-12-22T05:22:00.196Z,0
2022-12-22T05:24:06.174Z,0
2022-12-22T05:26:12.316Z,0
2022-12-22T05:27:15.435Z,0
2022-12-22T05:29:21.799Z,0
2022-12-22T05:31:28.988Z,0
2022-12-22T05:33:35.802Z,0
2022-12-22T05:34:39.166Z,0
2022-12-22T05:36:44.774Z,0
2022-12-22T05:38:50.799Z,0
2022-12-22T05:41:06.579Z,0
2022-12-22T05:42:09.299Z,0
2022-12-22T05:43:12.065Z,0
2022-12-22T05:44:15.435Z,0
2022-12-22T05:46:22.612Z,0
2022-12-22T05:47:26.039Z,0
2022-12-22T05:48:41.732Z,0
2022-12-22T05:49:45.089Z,0
2022-12-22T05:51:51.448Z,0
2022-12-22T05:53:58.407Z,0
2022-12-22T05:55:01.266Z,0
2022-12-22T05:56:04.707Z,0
2022-12-22T05:57:07.142Z,0
2022-12-22T05:59:12.296Z,0
2022-12-22T06:00:15.362Z,0
2022-12-22T06:01:18.459Z,0
2022-12-22T06:02:22.893Z,0
2022-12-22T06:04:31.935Z,0
2022-12-22T06:06:37.790Z,0
2022-12-22T06:07:40.955Z,0
2022-12-22T06:09:47.172Z,0
2022-12-22T06:11:52.969Z,0
2022-12-22T06:13:59.398Z,0
2022-12-22T06:15:02.895Z,0
2022-12-22T06:17:08.887Z,0
2022-12-22T06:19:16.042Z,0
2022-12-22T06:21:21.695Z,0
2022-12-22T06:22:25.325Z,0
2022-12-22T06:24:32.765Z,0
2022-12-22T06:26:39.282Z,0
2022-12-22T06:27:42.071Z,0
2022-12-22T06:28:45.740Z,0
2022-12-22T06:29:48.746Z,0
2022-12-22T06:31:54.863Z,0
2022-12-22T06:32:57.612Z,0
2022-12-22T06:34:01.007Z,0
2022-12-22T06:35:03.786Z,0
2022-12-22T06:37:09.748Z,0
2022-12-22T06:38:12.494Z,0
2022-12-22T06:40:19.765Z,0
2022-12-22T06:42:25.964Z,0
2022-12-22T06:44:32.597Z,0
2022-12-22T06:45:35.142Z,0
2022-12-22T06:47:41.356Z,0
2022-12-22T06:49:47.776Z,0
2022-12-22T06:51:53.991Z,0
2022-12-22T06:52:56.836Z,0
2022-12-22T06:55:03.614Z,0
2022-12-22T06:57:10.750Z,0
2022-12-22T06:59:16.971Z,0
2022-12-22T07:00:20.392Z,0
2022-12-22T07:02:28.825Z,0
2022-12-22T07:04:35.607Z,0
2022-12-22T07:06:42.122Z,0
2022-12-22T07:07:45.229Z,0
2022-12-22T07:08:48.300Z,0
2022-12-22T07:09:51.420Z,0
2022-12-22T07:11:58.033Z,0
2022-12-22T07:13:01.373Z,0
2022-12-22T07:14:04.792Z,0
2022-12-22T07:15:07.648Z,0
2022-12-22T07:17:14.975Z,0
2022-12-22T07:18:17.748Z,0
2022-12-22T07:20:24.301Z,0
2022-12-22T07:22:32.736Z,1
2022-12-22T07:24:39.545Z,0
2022-12-22T07:25:42.093Z,1
2022-12-22T07:26:45.541Z,1
2022-12-22T07:27:49.448Z,1
2022-12-22T07:29:56.218Z,1
2022-12-22T07:30:59.848Z,1
2022-12-22T07:32:03.542Z,1
2022-12-22T07:33:06.087Z,1
2022-12-22T07:35:11.813Z,2
2022-12-22T07:36:15.279Z,2
2022-12-22T07:37:18.604Z,2
2022-12-22T07:38:21.947Z,1
2022-12-22T07:40:27.855Z,2
2022-12-22T07:41:31.102Z,2
2022-12-22T07:42:34.476Z,2
2022-12-22T07:43:38.240Z,2
2022-12-22T07:45:43.933Z,2
2022-12-22T07:47:50.961Z,2
2022-12-22T07:48:54.307Z,2
2022-12-22T07:49:57.667Z,3
2022-12-22T07:51:00.128Z,3
2022-12-22T07:53:05.663Z,3
2022-12-22T07:54:09.121Z,3
2022-12-22T07:55:12.411Z,4
2022-12-22T07:56:15.117Z,4
2022-12-22T07:58:21.198Z,5
2022-12-22T07:59:24.999Z,5
2022-12-22T08:00:27.834Z,6
2022-12-22T08:01:32.111Z,7
2022-12-22T08:02:41.857Z,7
2022-12-22T08:03:45.449Z,7
2022-12-22T08:05:51.879Z,6
2022-12-22T08:06:54.979Z,6
2022-12-22T08:09:00.475Z,6
2022-12-22T08:11:07.636Z,7
2022-12-22T08:13:14.870Z,8
2022-12-22T08:14:18.021Z,8
2022-12-22T08:16:25.388Z,8
2022-12-22T08:18:31.928Z,9
2022-12-22T08:20:37.567Z,8
2022-12-22T08:21:50.225Z,8
2022-12-22T08:22:55.417Z,6
2022-12-22T08:23:58.873Z,5
2022-12-22T08:26:05.787Z,5
2022-12-22T08:28:12.533Z,4
2022-12-22T08:29:15.799Z,4
2022-12-22T08:31:23.229Z,5
2022-12-22T08:33:29.752Z,6
2022-12-22T08:35:35.923Z,7
2022-12-22T08:36:38.931Z,8
2022-12-22T08:38:45.931Z,11
2022-12-22T08:40:51.409Z,14
2022-12-22T08:41:54.518Z,12
2022-12-22T08:42:57.412Z,11
2022-12-22T08:44:00.351Z,11
2022-12-22T08:46:06.731Z,14
2022-12-22T08:47:19.172Z,14
2022-12-22T08:48:22.285Z,15
2022-12-22T08:49:26.035Z,16
2022-12-22T08:51:33.552Z,17
2022-12-22T08:54:08.940Z,15
2022-12-22T08:56:14.679Z,14
2022-12-22T08:58:21.698Z,11
2022-12-22T08:59:25.441Z,13
2022-12-22T09:01:32.780Z,12
2022-12-22T09:03:41.527Z,14
2022-12-22T09:05:47.394Z,17
2022-12-22T09:06:50.741Z,17
2022-12-22T09:08:57.261Z,17
2022-12-22T09:11:03.979Z,17
2022-12-22T09:13:10.099Z,19
2022-12-22T09:14:13.515Z,19
2022-12-22T09:16:20.829Z,22
2022-12-22T09:18:27.867Z,19
2022-12-22T09:20:34.360Z,25
2022-12-22T09:21:38.003Z,27
2022-12-22T09:23:43.106Z,25
2022-12-22T09:25:49.188Z,27
2022-12-22T09:27:55.636Z,24
2022-12-22T09:28:58.932Z,23
2022-12-22T09:31:05.850Z,25
2022-12-22T09:33:14.165Z,24
2022-12-22T09:35:24.093Z,20
2022-12-22T09:36:27.260Z,20
2022-12-22T09:37:30.886Z,19
2022-12-22T09:38:34.336Z,17
2022-12-22T09:40:40.652Z,15
2022-12-22T09:41:43.729Z,14
2022-12-22T09:43:49.269Z,14
2022-12-22T09:45:56.112Z,14
2022-12-22T09:46:59.525Z,15
2022-12-22T09:49:05.928Z,17
2022-12-22T09:51:12.432Z,17
2022-12-22T09:52:15.609Z,17
2022-12-22T09:54:21.170Z,17
2022-12-22T09:55:24.609Z,17
2022-12-22T09:56:28.065Z,17
2022-12-22T09:57:31.559Z,15
2022-12-22T09:59:38.135Z,14
2022-12-22T10:00:41.886Z,15
2022-12-22T10:02:49.475Z,18
2022-12-22T10:04:03.188Z,20
2022-12-22T10:05:06.297Z,21
2022-12-22T10:06:10.098Z,22
2022-12-22T10:08:16.872Z,24
2022-12-22T10:09:53.617Z,24
2022-12-22T10:10:56.970Z,22
2022-12-22T10:12:00.428Z,23
2022-12-22T10:14:06.151Z,24
2022-12-22T10:16:12.006Z,24
2022-12-22T10:17:14.944Z,25
2022-12-22T10:19:24.378Z,27
2022-12-22T10:20:28.297Z,27
2022-12-22T10:21:32.141Z,26
2022-12-22T10:22:35.203Z,25
2022-12-22T10:24:42.535Z,25
2022-12-22T10:26:33.141Z,25
2022-12-22T10:27:52.808Z,26
2022-12-22T10:28:56.194Z,26
2022-12-22T10:31:02.455Z,25
2022-12-22T10:33:09.653Z,26
2022-12-22T10:34:13.346Z,26
2022-12-22T10:35:16.354Z,28
2022-12-22T10:36:19.594Z,28
2022-12-22T10:38:27.097Z,24
2022-12-22T10:39:32.273Z,24
2022-12-22T10:40:35.681Z,25
2022-12-22T10:41:38.806Z,25
2022-12-22T10:43:45.678Z,22
2022-12-22T10:45:52.422Z,18
2022-12-22T10:46:55.895Z,16
2022-12-22T10:49:02.551Z,17
2022-12-22T10:50:05.595Z,15
2022-12-22T10:51:09.224Z,15
2022-12-22T10:52:13.389Z,17
2022-12-22T10:53:17.434Z,17
2022-12-22T10:54:20.513Z,18
2022-12-22T10:56:26.540Z,21
2022-12-22T10:57:30.232Z,22
2022-12-22T10:59:36.787Z,19
2022-12-22T11:00:52.673Z,18
2022-12-22T11:02:00.476Z,18
2022-12-22T11:04:11.641Z,21
2022-12-22T11:05:15.166Z,19
2022-12-22T11:07:20.925Z,16
2022-12-22T11:09:38.041Z,18
2022-12-22T11:10:41.622Z,18
2022-12-22T11:12:49.015Z,17
2022-12-22T11:14:55.154Z,16
2022-12-22T11:15:58.889Z,15
2022-12-22T11:17:02.744Z,15
2022-12-22T11:18:06.168Z,14
2022-12-22T11:20:12.290Z,15
2022-12-22T11:21:25.998Z,15
2022-12-22T11:23:34.709Z,15
2022-12-22T11:24:38.458Z,13
2022-12-22T11:25:41.475Z,13
2022-12-22T11:26:44.876Z,13
2022-12-22T11:27:48.956Z,14
2022-12-22T11:28:52.350Z,15
2022-12-22T11:29:56.068Z,16
2022-12-22T11:32:03.253Z,16
2022-12-22T11:33:06.916Z,15
2022-12-22T11:35:13.465Z,16
2022-12-22T11:41:21.734Z,21
2022-12-22T11:42:25.440Z,17
2022-12-22T11:43:29.124Z,15
2022-12-22T11:44:32.868Z,14
2022-12-22T11:45:45.326Z,15
2022-12-22T11:46:49.339Z,15
2022-12-22T11:47:53.123Z,17
2022-12-22T11:51:15.484Z,20
2022-12-22T11:52:29.159Z,20
2022-12-22T11:53:33.981Z,18
2022-12-22T11:55:41.497Z,18
2022-12-22T11:57:48.387Z,18
2022-12-22T11:58:51.970Z,20
2022-12-22T12:01:27.592Z,21
2022-12-22T12:02:33.168Z,19
2022-12-22T12:03:38.073Z,19
2022-12-22T12:04:41.489Z,20
2022-12-22T12:06:48.320Z,21
2022-12-22T12:08:54.531Z,22
2022-12-22T12:09:57.799Z,22
2022-12-22T12:12:04.009Z,22
2022-12-22T12:13:07.889Z,21
2022-12-22T12:15:14.433Z,16
2022-12-22T12:16:18.520Z,15
2022-12-22T12:18:25.475Z,17
2022-12-22T12:19:31.231Z,17
2022-12-22T12:20:34.527Z,16
2022-12-22T12:21:37.600Z,18
2022-12-22T12:23:44.376Z,14
2022-12-22T12:24:47.768Z,12
2022-12-22T12:26:54.190Z,10
2022-12-22T12:27:56.711Z,11
2022-12-22T12:29:00.816Z,12
2022-12-22T12:30:41.701Z,12
2022-12-22T12:31:45.491Z,15
2022-12-22T12:32:49.285Z,14
2022-12-22T12:34:55.418Z,21
2022-12-22T12:35:58.424Z,20
2022-12-22T12:38:04.275Z,12
2022-12-22T12:40:14.723Z,11
2022-12-22T12:41:17.743Z,11
2022-12-22T12:43:24.313Z,12
2022-12-22T12:45:31.184Z,28
2022-12-22T12:46:34.735Z,27
2022-12-22T12:48:42.700Z,19
2022-12-22T12:50:48.913Z,22
2022-12-22T12:51:51.477Z,36
2022-12-22T12:53:59.207Z,24
2022-12-22T12:56:04.838Z,27
2022-12-22T12:57:07.923Z,25
2022-12-22T12:59:14.780Z,25
2022-12-22T13:01:22.451Z,26
2022-12-22T13:02:27.405Z,26
2022-12-22T13:04:07.997Z,21
2022-12-22T13:05:11.398Z,23
2022-12-22T13:07:18.572Z,36
2022-12-22T13:09:54.905Z,36
2022-12-22T13:12:25.507Z,27
2022-12-22T13:14:32.575Z,38
2022-12-22T13:15:37.295Z,41
2022-12-22T13:17:46.054Z,53
2022-12-22T13:18:53.996Z,49
2022-12-22T13:19:57.943Z,47
2022-12-22T13:21:57.857Z,44
2022-12-22T13:23:01.568Z,44
2022-12-22T13:24:34.376Z,43
2022-12-22T13:25:37.710Z,49
2022-12-22T13:26:41.719Z,52
2022-12-22T13:28:48.839Z,39
2022-12-22T13:29:52.242Z,29
2022-12-22T13:30:56.340Z,24
2022-12-22T13:32:00.133Z,21
2022-12-22T13:34:06.673Z,23
2022-12-22T13:35:59.882Z,30
2022-12-22T13:37:03.550Z,29
2022-12-22T13:39:10.370Z,25
2022-12-22T13:40:13.682Z,25
2022-12-22T13:41:28.499Z,27
2022-12-22T13:42:32.133Z,34
2022-12-22T13:44:38.763Z,37
2022-12-22T13:45:42.250Z,36
2022-12-22T13:47:49.958Z,36
2022-12-22T13:50:12.934Z,38
2022-12-22T13:52:19.541Z,42
2022-12-22T13:54:13.723Z,47
2022-12-22T13:55:17.393Z,47
2022-12-22T13:56:20.856Z,41
2022-12-22T13:58:27.404Z,33
2022-12-22T13:59:31.107Z,35
2022-12-22T14:01:38.733Z,36
2022-12-22T14:04:06.171Z,41
2022-12-22T14:05:09.703Z,36
2022-12-22T14:06:13.055Z,36
2022-12-22T14:07:16.278Z,34
2022-12-22T14:09:23.070Z,32
2022-12-22T14:10:26.854Z,32
2022-12-22T14:12:32.667Z,31
2022-12-22T14:14:38.796Z,33
2022-12-22T14:16:46.182Z,32
2022-12-22T14:17:55.276Z,31
2022-12-22T14:18:58.736Z,29
2022-12-22T14:20:01.809Z,27
2022-12-22T14:22:08.063Z,25
2022-12-22T14:23:11.467Z,24
2022-12-22T14:24:14.841Z,24
2022-12-22T14:25:18.334Z,22
2022-12-22T14:27:24.531Z,21
2022-12-22T14:28:28.291Z,20
2022-12-22T14:30:40.985Z,18
2022-12-22T14:31:44.520Z,17
2022-12-22T14:32:57.761Z,16
2022-12-22T14:35:05.028Z,15
2022-12-22T14:36:08.229Z,14
2022-12-22T14:38:15.442Z,13
2022-12-22T14:40:21.983Z,12
2022-12-22T14:41:25.999Z,11
2022-12-22T14:43:31.989Z,10
2022-12-22T14:45:39.169Z,9
2022-12-22T14:46:43.173Z,8
2022-12-22T14:48:49.126Z,7
2022-12-22T14:50:56.568Z,6
2022-12-22T14:53:06.977Z,5
2022-12-22T14:54:09.973Z,5
2022-12-22T14:56:17.444Z,4
2022-12-22T14:58:23.966Z,4
2022-12-22T14:59:27.132Z,3
2022-12-22T15:00:30.261Z,3
2022-12-22T15:01:35.086Z,3
2022-12-22T15:02:43.015Z,2
2022-12-22T15:03:47.703Z,2
2022-12-22T15:04:51.280Z,2
2022-12-22T15:06:59.348Z,2
2022-12-22T15:08:11.799Z,1
2022-12-22T15:09:15.310Z,1
2022-12-22T15:10:20.072Z,1
2022-12-22T15:12:26.377Z,1
2022-12-22T15:14:41.103Z,0
2022-12-22T15:15:45.076Z,0
2022-12-22T15:16:49.065Z,0
2022-12-22T15:17:51.996Z,0
2022-12-22T15:19:59.067Z,0
2022-12-22T15:22:07.156Z,0
2022-12-22T15:23:10.150Z,0
2022-12-22T15:25:16.095Z,0
2022-12-22T15:27:22.532Z,0
2022-12-22T15:29:29.479Z,0
2022-12-22T15:30:33.727Z,0
2022-12-22T15:32:40.578Z,0
2022-12-22T15:34:46.851Z,0
2022-12-22T15:36:54.555Z,0
2022-12-22T15:37:57.966Z,0
2022-12-22T15:40:04.549Z,0
2022-12-22T15:42:10.471Z,0
2022-12-22T15:44:01.165Z,0
2022-12-22T15:45:04.292Z,0
2022-12-22T15:47:11.743Z,0
2022-12-22T15:48:15.095Z,0
2022-12-22T15:50:21.579Z,0
2022-12-22T15:52:29.131Z,0
2022-12-22T15:53:32.516Z,0
2022-12-22T15:55:38.999Z,0
2022-12-22T15:57:45.739Z,0
2022-12-22T15:58:48.277Z,0
2022-12-22T15:59:51.611Z,0
2022-12-22T16:00:56.047Z,0
2022-12-22T16:02:05.213Z,0
2022-12-22T16:03:09.516Z,0
2022-12-22T16:05:16.711Z,0
2022-12-22T16:07:22.805Z,0
2022-12-22T16:08:26.651Z,0
2022-12-22T16:10:32.819Z,0
2022-12-22T16:12:38.849Z,0
2022-12-22T16:14:52.770Z,0
2022-12-22T16:15:56.667Z,0
2022-12-22T16:18:04.405Z,0
2022-12-22T16:20:10.709Z,0
2022-12-22T16:22:16.660Z,0
2022-12-22T16:23:20.200Z,0
2022-12-22T16:25:27.754Z,0
2022-12-22T16:27:34.259Z,0
2022-12-22T16:29:41.579Z,0
2022-12-22T16:30:45.238Z,0
2022-12-22T16:32:51.874Z,0
2022-12-22T16:34:59.056Z,0
2022-12-22T16:37:06.303Z,0
2022-12-22T16:38:21.362Z,0
2022-12-22T16:39:24.498Z,0
2022-12-22T16:40:28.311Z,0
2022-12-22T16:43:48.445Z,0
2022-12-22T16:44:55.097Z,0
2022-12-22T16:45:59.795Z,0
2022-12-22T16:47:03.579Z,0
2022-12-22T16:48:07.020Z,0
2022-12-22T16:50:13.327Z,0
2022-12-22T16:51:16.655Z,0
2022-12-22T16:53:23.143Z,0
2022-12-22T16:55:30.361Z,0
2022-12-22T16:57:36.419Z,0
2022-12-22T16:58:39.773Z,0
2022-12-22T17:00:46.036Z,0
2022-12-22T17:02:55.333Z,0
2022-12-22T17:03:58.323Z,0
2022-12-22T17:06:05.465Z,0
2022-12-22T17:08:11.953Z,0
2022-12-22T17:10:18.815Z,0
2022-12-22T17:11:22.402Z,0
2022-12-22T17:13:29.672Z,0
2022-12-22T17:14:33.383Z,0
2022-12-22T17:15:37.075Z,0
2022-12-22T17:16:40.496Z,0
2022-12-22T17:18:48.536Z,0
2022-12-22T17:19:51.710Z,0
2022-12-22T17:20:55.397Z,0
2022-12-22T17:21:58.545Z,0
2022-12-22T17:24:05.635Z,0
2022-12-22T17:25:08.848Z,0
2022-12-22T17:27:16.112Z,0
2022-12-22T17:29:22.642Z,0
2022-12-22T17:31:29.349Z,0
2022-12-22T17:32:33.133Z,0
2022-12-22T17:34:39.365Z,0
2022-12-22T17:36:45.632Z,0
2022-12-22T17:38:51.527Z,0
2022-12-22T17:39:54.710Z,0
2022-12-22T17:42:00.918Z,0
2022-12-22T17:44:08.087Z,0
2022-12-22T17:45:11.548Z,0
2022-12-22T17:47:16.641Z,0
2022-12-22T17:49:22.985Z,0
2022-12-22T17:51:29.526Z,0
2022-12-22T17:52:32.688Z,0
2022-12-22T17:53:43.274Z,0
2022-12-22T17:54:46.488Z,0
2022-12-22T17:56:11.537Z,0
2022-12-22T17:57:15.219Z,0
2022-12-22T17:59:23.258Z,0
2022-12-22T18:00:26.161Z,0
2022-12-22T18:02:34.102Z,0
2022-12-22T18:04:41.055Z,0
2022-12-22T18:05:44.088Z,0
2022-12-22T18:06:48.311Z,0
2022-12-22T18:07:53.373Z,0
2022-12-22T18:10:02.415Z,0
2022-12-22T18:12:09.864Z,0
2022-12-22T18:13:14.175Z,0
2022-12-22T18:14:18.821Z,0
2022-12-22T18:15:22.777Z,0
2022-12-22T18:17:38.514Z,0
2022-12-22T18:19:45.751Z,0
2022-12-22T18:21:10.432Z,0
2022-12-22T18:22:15.029Z,0
2022-12-22T18:23:19.126Z,0
2022-12-22T18:25:27.384Z,0
2022-12-22T18:27:35.245Z,0
2022-12-22T18:28:39.808Z,0
2022-12-22T18:30:48.567Z,0
2022-12-22T18:32:56.462Z,0
2022-12-22T18:35:04.777Z,0
2022-12-22T18:36:08.076Z,0
2022-12-22T18:38:14.054Z,0
2022-12-22T18:40:30.765Z,0
2022-12-22T18:42:38.530Z,0
2022-12-22T18:43:41.802Z,0
2022-12-22T18:45:48.819Z,0
2022-12-22T18:47:57.411Z,0
2022-12-22T18:49:08.134Z,0
2022-12-22T18:50:11.338Z,0
2022-12-22T18:51:14.449Z,0
2022-12-22T18:53:19.999Z,0
2022-12-22T18:55:26.618Z,0
2022-12-22T18:57:32.568Z,0
2022-12-22T18:58:36.126Z,0
2022-12-22T19:00:43.193Z,0
2022-12-22T19:02:53.457Z,0
2022-12-22T19:03:57.664Z,0
2022-12-22T19:05:00.767Z,0
2022-12-22T19:06:03.784Z,0
2022-12-22T19:08:09.518Z,0
2022-12-22T19:09:12.597Z,0
2022-12-22T19:10:15.890Z,0
2022-12-22T19:11:18.615Z,0
2022-12-22T19:13:25.197Z,0
2022-12-22T19:15:31.307Z,0
2022-12-22T19:16:35.200Z,0
2022-12-22T19:18:42.359Z,0
2022-12-22T19:20:47.907Z,0
2022-12-22T19:22:53.613Z,0
2022-12-22T19:23:57.817Z,0
2022-12-22T19:26:11.621Z,0
2022-12-22T19:27:15.287Z,0
2022-12-22T19:28:19.623Z,0
2022-12-22T19:30:26.512Z,0
2022-12-22T19:31:31.067Z,0
2022-12-22T19:33:40.961Z,0
2022-12-22T19:35:48.302Z,0
2022-12-22T19:37:56.399Z,0
2022-12-22T19:39:08.418Z,0
2022-12-22T19:40:12.726Z,0
2022-12-22T19:41:16.317Z,0
2022-12-22T19:43:24.015Z,0
2022-12-22T19:44:28.548Z,0
2022-12-22T19:45:32.699Z,0
2022-12-22T19:46:37.911Z,0
2022-12-22T19:48:46.530Z,0
2022-12-22T19:50:55.178Z,0
2022-12-22T19:51:58.674Z,0
2022-12-22T19:54:06.907Z,0
2022-12-22T19:56:15.418Z,0
2022-12-22T19:57:19.577Z,0
2022-12-22T19:58:23.462Z,0
2022-12-22T19:59:41.885Z,0
2022-12-22T20:00:47.028Z,0
2022-12-22T20:01:53.031Z,0
2022-12-22T20:04:01.859Z,0
2022-12-22T20:05:16.258Z,0
2022-12-22T20:06:20.233Z,0
2022-12-22T20:07:24.137Z,0
2022-12-22T20:09:31.302Z,0
2022-12-22T20:10:35.161Z,0
2022-12-22T20:11:38.916Z,0
2022-12-22T20:12:42.279Z,0
2022-12-22T20:14:49.062Z,0
2022-12-22T20:15:52.138Z,0
2022-12-22T20:16:55.957Z,0
2022-12-22T20:17:59.453Z,0
2022-12-22T20:20:06.061Z,0
2022-12-22T20:21:09.104Z,0
2022-12-22T20:22:11.937Z,0
2022-12-22T20:23:14.655Z,0
2022-12-22T20:25:22.209Z,0
2022-12-22T20:26:25.322Z,0
2022-12-22T20:27:28.433Z,0
2022-12-22T20:28:31.165Z,0
2022-12-22T20:30:38.181Z,0
2022-12-22T20:32:44.330Z,0
2022-12-22T20:33:48.421Z,0
2022-12-22T20:35:54.680Z,0
2022-12-22T20:38:02.070Z,0
2022-12-22T20:40:08.971Z,0
2022-12-22T20:41:11.712Z,0
2022-12-22T20:43:18.237Z,0
2022-12-22T20:45:24.479Z,0
2022-12-22T20:47:31.770Z,0
2022-12-22T20:48:35.471Z,0
2022-12-22T20:50:41.821Z,0
2022-12-22T20:52:49.233Z,0
2022-12-22T20:53:52.699Z,0
2022-12-22T20:54:56.083Z,0
2022-12-22T20:56:00.176Z,0
2022-12-22T20:58:06.241Z,0
2022-12-22T20:59:09.348Z,0
2022-12-22T21:01:15.765Z,0
2022-12-22T21:03:25.281Z,0
2022-12-22T21:05:32.078Z,0
2022-12-22T21:06:35.463Z,0
2022-12-22T21:08:42.877Z,0
2022-12-22T21:10:48.659Z,0
2022-12-22T21:12:56.080Z,0
2022-12-22T21:13:59.765Z,0
2022-12-22T21:16:06.011Z,0
2022-12-22T21:18:12.671Z,0
2022-12-22T21:20:19.890Z,0
2022-12-22T21:21:23.115Z,0
2022-12-22T21:23:29.957Z,0
2022-12-22T21:25:36.117Z,0
2022-12-22T21:26:38.607Z,0
2022-12-22T21:27:42.323Z,0
2022-12-22T21:28:44.514Z,0
2022-12-22T21:30:50.581Z,0
2022-12-22T21:31:54.004Z,0
2022-12-22T21:32:56.717Z,0
2022-12-22T21:34:00.541Z,0
2022-12-22T21:35:10.651Z,0
2022-12-22T21:36:13.664Z,0
2022-12-22T21:38:20.956Z,0
2022-12-22T21:39:24.451Z,0
2022-12-22T21:41:30.550Z,0
2022-12-22T21:43:36.957Z,0
2022-12-22T21:45:44.663Z,0
2022-12-22T21:46:48.699Z,0
2022-12-22T21:48:53.876Z,0
2022-12-22T21:51:01.152Z,0
2022-12-22T21:53:07.882Z,0
2022-12-22T21:54:11.531Z,0
2022-12-22T21:56:18.833Z,0
2022-12-22T21:58:23.806Z,0
2022-12-22T22:00:30.517Z,0
2022-12-22T22:01:35.032Z,0
2022-12-22T22:03:43.498Z,0
2022-12-22T22:04:56.861Z,0
2022-12-22T22:05:59.981Z,0
2022-12-22T22:08:06.045Z,0
2022-12-22T22:10:12.418Z,0
2022-12-22T22:11:16.123Z,0
2022-12-22T22:12:30.089Z,0
2022-12-22T22:13:33.184Z,0
2022-12-22T22:15:40.894Z,0
2022-12-22T22:17:46.520Z,0
2022-12-22T22:18:49.881Z,0
2022-12-22T22:19:53.877Z,0
2022-12-22T22:20:57.523Z,0
2022-12-22T22:23:04.384Z,0
2022-12-22T22:25:11.386Z,0
2022-12-22T22:26:14.258Z,0
2022-12-22T22:27:17.409Z,0
2022-12-22T22:28:20.816Z,0
2022-12-22T22:30:27.586Z,0
2022-12-22T22:32:34.956Z,0
2022-12-22T22:34:40.933Z,0
2022-12-22T22:35:44.300Z,0
2022-12-22T22:37:51.011Z,0
2022-12-22T22:39:56.757Z,0
2022-12-22T22:41:00.298Z,0
2022-12-22T22:42:03.469Z,0
2022-12-22T22:43:07.242Z,0
2022-12-22T22:45:13.674Z,0
2022-12-22T22:47:20.495Z,0
2022-12-22T22:49:30.722Z,0
2022-12-22T22:50:33.820Z,0
2022-12-22T22:52:41.573Z,0
2022-12-22T22:54:48.223Z,0
2022-12-22T22:56:56.020Z,0
2022-12-22T22:57:58.755Z,0
2022-12-22T23:00:05.787Z,0
2022-12-22T23:02:13.394Z,0
2022-12-22T23:04:22.839Z,0
2022-12-22T23:05:25.680Z,0
2022-12-22T23:06:28.760Z,0
2022-12-22T23:07:31.892Z,0
2022-12-22T23:09:37.286Z,0
2022-12-22T23:10:44.550Z,0
2022-12-22T23:12:52.070Z,0
2022-12-22T23:14:59.658Z,0
2022-12-22T23:17:06.047Z,0
2022-12-22T23:18:09.047Z,0
2022-12-22T23:19:12.391Z,0
2022-12-22T23:20:15.493Z,0
2022-12-22T23:22:21.991Z,0
2022-12-22T23:23:25.286Z,0
2022-12-22T23:24:27.786Z,0
2022-12-22T23:25:31.886Z,0